sensor_id;sensor_type;location;lat;lon;timestamp;P1;durP1;ratioP1;P2;durP2;ratioP2
4696;SDS011;2362;50.780;0.292;2024-01-25T00:00:31;75.07;;;9.40;;
4696;SDS011;2362;50.780;0.292;2024-01-25T00:02:57;69.90;;;9.27;;
4696;SDS011;2362;50.780;0.292;2024-01-25T00:05:22;71.43;;;10.83;;
4696;SDS011;2362;50.780;0.292;2024-01-25T00:07:48;59.90;;;10.30;;
4696;SDS011;2362;50.780;0.292;2024-01-25T00:10:15;61.90;;;9.20;;
4696;SDS011;2362;50.780;0.292;2024-01-25T00:12:42;64.03;;;9.33;;
4696;SDS011;2362;50.780;0.292;2024-01-25T00:15:08;54.77;;;9.10;;
4696;SDS011;2362;50.780;0.292;2024-01-25T00:17:34;61.27;;;10.13;;
4696;SDS011;2362;50.780;0.292;2024-01-25T00:20:00;77.40;;;12.07;;
4696;SDS011;2362;50.780;0.292;2024-01-25T00:22:25;75.33;;;11.17;;
4696;SDS011;2362;50.780;0.292;2024-01-25T00:24:51;81.73;;;11.07;;
4696;SDS011;2362;50.780;0.292;2024-01-25T00:27:16;76.10;;;12.43;;
4696;SDS011;2362;50.780;0.292;2024-01-25T00:29:42;90.53;;;12.77;;
4696;SDS011;2362;50.780;0.292;2024-01-25T00:32:08;68.53;;;11.23;;
4696;SDS011;2362;50.780;0.292;2024-01-25T00:34:34;73.53;;;11.17;;
4696;SDS011;2362;50.780;0.292;2024-01-25T00:37:00;82.20;;;11.50;;
4696;SDS011;2362;50.780;0.292;2024-01-25T00:39:26;83.03;;;11.83;;
4696;SDS011;2362;50.780;0.292;2024-01-25T00:41:52;80.33;;;11.27;;
4696;SDS011;2362;50.780;0.292;2024-01-25T00:44:27;85.53;;;11.03;;
4696;SDS011;2362;50.780;0.292;2024-01-25T00:46:53;84.70;;;12.37;;
4696;SDS011;2362;50.780;0.292;2024-01-25T00:49:19;90.00;;;11.70;;
4696;SDS011;2362;50.780;0.292;2024-01-25T00:51:48;95.97;;;13.50;;
4696;SDS011;2362;50.780;0.292;2024-01-25T00:54:14;80.47;;;13.67;;
4696;SDS011;2362;50.780;0.292;2024-01-25T00:56:40;78.50;;;11.00;;
4696;SDS011;2362;50.780;0.292;2024-01-25T00:59:06;84.00;;;11.80;;
4696;SDS011;2362;50.780;0.292;2024-01-25T01:01:32;63.10;;;9.97;;
4696;SDS011;2362;50.780;0.292;2024-01-25T01:03:58;65.17;;;10.73;;
4696;SDS011;2362;50.780;0.292;2024-01-25T01:06:25;82.23;;;10.27;;
4696;SDS011;2362;50.780;0.292;2024-01-25T01:08:51;83.10;;;11.97;;
4696;SDS011;2362;50.780;0.292;2024-01-25T01:11:17;71.90;;;11.23;;
4696;SDS011;2362;50.780;0.292;2024-01-25T01:13:44;72.17;;;11.07;;
4696;SDS011;2362;50.780;0.292;2024-01-25T01:16:09;85.20;;;12.17;;
4696;SDS011;2362;50.780;0.292;2024-01-25T01:18:35;92.60;;;11.90;;
4696;SDS011;2362;50.780;0.292;2024-01-25T01:21:01;97.40;;;14.47;;
4696;SDS011;2362;50.780;0.292;2024-01-25T01:23:27;72.00;;;13.90;;
4696;SDS011;2362;50.780;0.292;2024-01-25T01:25:52;97.80;;;13.23;;
4696;SDS011;2362;50.780;0.292;2024-01-25T01:28:18;71.67;;;11.60;;
4696;SDS011;2362;50.780;0.292;2024-01-25T01:30:44;84.70;;;11.83;;
4696;SDS011;2362;50.780;0.292;2024-01-25T01:33:10;68.10;;;12.73;;
4696;SDS011;2362;50.780;0.292;2024-01-25T01:35:36;85.17;;;12.07;;
4696;SDS011;2362;50.780;0.292;2024-01-25T01:38:02;66.37;;;11.00;;
4696;SDS011;2362;50.780;0.292;2024-01-25T01:40:28;84.77;;;10.73;;
4696;SDS011;2362;50.780;0.292;2024-01-25T01:43:00;61.33;;;11.60;;
4696;SDS011;2362;50.780;0.292;2024-01-25T01:45:26;75.53;;;12.20;;
4696;SDS011;2362;50.780;0.292;2024-01-25T01:47:52;80.43;;;11.67;;
4696;SDS011;2362;50.780;0.292;2024-01-25T01:50:18;78.17;;;12.37;;
4696;SDS011;2362;50.780;0.292;2024-01-25T01:52:44;64.63;;;10.87;;
4696;SDS011;2362;50.780;0.292;2024-01-25T01:55:11;78.57;;;11.37;;
4696;SDS011;2362;50.780;0.292;2024-01-25T01:57:37;64.20;;;10.90;;
4696;SDS011;2362;50.780;0.292;2024-01-25T02:00:03;78.17;;;11.07;;
4696;SDS011;2362;50.780;0.292;2024-01-25T02:02:33;76.37;;;10.90;;
4696;SDS011;2362;50.780;0.292;2024-01-25T02:04:59;69.47;;;11.30;;
4696;SDS011;2362;50.780;0.292;2024-01-25T02:07:26;67.60;;;10.13;;
4696;SDS011;2362;50.780;0.292;2024-01-25T02:09:51;76.10;;;10.80;;
4696;SDS011;2362;50.780;0.292;2024-01-25T02:12:17;63.50;;;10.23;;
4696;SDS011;2362;50.780;0.292;2024-01-25T02:14:43;74.00;;;10.63;;
4696;SDS011;2362;50.780;0.292;2024-01-25T02:17:09;71.00;;;10.20;;
4696;SDS011;2362;50.780;0.292;2024-01-25T02:19:35;58.17;;;9.93;;
4696;SDS011;2362;50.780;0.292;2024-01-25T02:22:00;66.27;;;10.20;;
4696;SDS011;2362;50.780;0.292;2024-01-25T02:24:29;51.83;;;8.00;;
4696;SDS011;2362;50.780;0.292;2024-01-25T02:26:55;65.60;;;10.13;;
4696;SDS011;2362;50.780;0.292;2024-01-25T02:29:20;91.03;;;12.57;;
4696;SDS011;2362;50.780;0.292;2024-01-25T02:31:46;87.93;;;11.03;;
4696;SDS011;2362;50.780;0.292;2024-01-25T02:34:12;78.13;;;11.20;;
4696;SDS011;2362;50.780;0.292;2024-01-25T02:36:37;74.93;;;9.90;;
4696;SDS011;2362;50.780;0.292;2024-01-25T02:39:03;78.63;;;11.60;;
4696;SDS011;2362;50.780;0.292;2024-01-25T02:41:30;86.20;;;11.67;;
4696;SDS011;2362;50.780;0.292;2024-01-25T02:43:56;75.47;;;11.87;;
4696;SDS011;2362;50.780;0.292;2024-01-25T02:46:22;83.73;;;11.60;;
4696;SDS011;2362;50.780;0.292;2024-01-25T02:48:48;89.30;;;12.63;;
4696;SDS011;2362;50.780;0.292;2024-01-25T02:51:13;80.40;;;11.93;;
4696;SDS011;2362;50.780;0.292;2024-01-25T02:53:40;75.93;;;12.97;;
4696;SDS011;2362;50.780;0.292;2024-01-25T02:56:06;73.00;;;12.07;;
4696;SDS011;2362;50.780;0.292;2024-01-25T02:58:32;64.53;;;9.93;;
4696;SDS011;2362;50.780;0.292;2024-01-25T03:00:57;74.17;;;10.07;;
4696;SDS011;2362;50.780;0.292;2024-01-25T03:03:23;71.03;;;10.77;;
4696;SDS011;2362;50.780;0.292;2024-01-25T03:05:49;88.77;;;11.47;;
4696;SDS011;2362;50.780;0.292;2024-01-25T03:08:16;68.83;;;10.40;;
4696;SDS011;2362;50.780;0.292;2024-01-25T03:10:42;77.97;;;11.20;;
4696;SDS011;2362;50.780;0.292;2024-01-25T03:13:07;71.47;;;10.03;;
4696;SDS011;2362;50.780;0.292;2024-01-25T03:15:33;64.43;;;9.07;;
4696;SDS011;2362;50.780;0.292;2024-01-25T03:17:59;74.33;;;10.93;;
4696;SDS011;2362;50.780;0.292;2024-01-25T03:20:25;66.23;;;11.27;;
4696;SDS011;2362;50.780;0.292;2024-01-25T03:22:50;81.23;;;12.37;;
4696;SDS011;2362;50.780;0.292;2024-01-25T03:25:16;58.07;;;11.10;;
4696;SDS011;2362;50.780;0.292;2024-01-25T03:27:42;71.63;;;13.27;;
4696;SDS011;2362;50.780;0.292;2024-01-25T03:30:07;90.10;;;12.17;;
4696;SDS011;2362;50.780;0.292;2024-01-25T03:32:34;76.40;;;12.10;;
4696;SDS011;2362;50.780;0.292;2024-01-25T03:34:59;202.90;;;18.83;;
4696;SDS011;2362;50.780;0.292;2024-01-25T03:37:25;221.60;;;19.23;;
4696;SDS011;2362;50.780;0.292;2024-01-25T03:39:51;172.77;;;17.17;;
4696;SDS011;2362;50.780;0.292;2024-01-25T03:42:16;198.17;;;19.30;;
4696;SDS011;2362;50.780;0.292;2024-01-25T03:44:42;230.17;;;19.67;;
4696;SDS011;2362;50.780;0.292;2024-01-25T03:47:09;292.87;;;22.83;;
4696;SDS011;2362;50.780;0.292;2024-01-25T03:49:35;191.27;;;21.77;;
4696;SDS011;2362;50.780;0.292;2024-01-25T03:52:01;194.63;;;21.63;;
4696;SDS011;2362;50.780;0.292;2024-01-25T03:54:28;260.53;;;19.40;;
4696;SDS011;2362;50.780;0.292;2024-01-25T03:56:53;156.83;;;19.47;;
4696;SDS011;2362;50.780;0.292;2024-01-25T03:59:19;313.07;;;22.63;;
4696;SDS011;2362;50.780;0.292;2024-01-25T04:01:45;241.80;;;20.53;;
4696;SDS011;2362;50.780;0.292;2024-01-25T04:04:12;233.30;;;21.17;;
4696;SDS011;2362;50.780;0.292;2024-01-25T04:06:43;319.50;;;20.53;;
4696;SDS011;2362;50.780;0.292;2024-01-25T04:09:10;207.83;;;20.77;;
4696;SDS011;2362;50.780;0.292;2024-01-25T04:11:37;185.70;;;19.53;;
4696;SDS011;2362;50.780;0.292;2024-01-25T04:14:03;206.37;;;18.87;;
4696;SDS011;2362;50.780;0.292;2024-01-25T04:16:29;152.70;;;17.33;;
4696;SDS011;2362;50.780;0.292;2024-01-25T04:18:55;175.30;;;19.77;;
4696;SDS011;2362;50.780;0.292;2024-01-25T04:21:20;171.50;;;17.83;;
4696;SDS011;2362;50.780;0.292;2024-01-25T04:23:46;176.90;;;21.17;;
4696;SDS011;2362;50.780;0.292;2024-01-25T04:26:12;153.70;;;19.03;;
4696;SDS011;2362;50.780;0.292;2024-01-25T04:28:37;136.20;;;17.90;;
4696;SDS011;2362;50.780;0.292;2024-01-25T04:31:03;141.73;;;18.30;;
4696;SDS011;2362;50.780;0.292;2024-01-25T04:33:29;144.00;;;17.17;;
4696;SDS011;2362;50.780;0.292;2024-01-25T04:35:54;146.73;;;17.30;;
4696;SDS011;2362;50.780;0.292;2024-01-25T04:38:21;124.23;;;17.37;;
4696;SDS011;2362;50.780;0.292;2024-01-25T04:40:46;112.77;;;15.90;;
4696;SDS011;2362;50.780;0.292;2024-01-25T04:43:12;130.30;;;16.77;;
4696;SDS011;2362;50.780;0.292;2024-01-25T04:45:38;120.30;;;15.97;;
4696;SDS011;2362;50.780;0.292;2024-01-25T04:48:05;107.13;;;16.93;;
4696;SDS011;2362;50.780;0.292;2024-01-25T04:50:31;110.47;;;14.10;;
4696;SDS011;2362;50.780;0.292;2024-01-25T04:52:56;121.70;;;18.33;;
4696;SDS011;2362;50.780;0.292;2024-01-25T04:55:22;104.87;;;16.70;;
4696;SDS011;2362;50.780;0.292;2024-01-25T04:57:48;85.67;;;14.60;;
4696;SDS011;2362;50.780;0.292;2024-01-25T05:00:16;114.43;;;16.13;;
4696;SDS011;2362;50.780;0.292;2024-01-25T05:02:42;77.53;;;14.30;;
4696;SDS011;2362;50.780;0.292;2024-01-25T05:05:09;68.13;;;13.57;;
4696;SDS011;2362;50.780;0.292;2024-01-25T05:07:35;65.53;;;13.90;;
4696;SDS011;2362;50.780;0.292;2024-01-25T05:10:00;60.97;;;12.97;;
4696;SDS011;2362;50.780;0.292;2024-01-25T05:12:27;53.17;;;14.77;;
4696;SDS011;2362;50.780;0.292;2024-01-25T05:14:52;68.30;;;16.13;;
4696;SDS011;2362;50.780;0.292;2024-01-25T05:17:18;58.30;;;17.80;;
4696;SDS011;2362;50.780;0.292;2024-01-25T05:19:43;62.80;;;18.20;;
4696;SDS011;2362;50.780;0.292;2024-01-25T05:22:10;50.43;;;14.07;;
4696;SDS011;2362;50.780;0.292;2024-01-25T05:24:35;62.60;;;15.33;;
4696;SDS011;2362;50.780;0.292;2024-01-25T05:27:01;51.80;;;12.67;;
4696;SDS011;2362;50.780;0.292;2024-01-25T05:29:27;44.53;;;11.37;;
4696;SDS011;2362;50.780;0.292;2024-01-25T05:31:52;45.40;;;8.40;;
4696;SDS011;2362;50.780;0.292;2024-01-25T05:34:18;39.70;;;7.53;;
4696;SDS011;2362;50.780;0.292;2024-01-25T05:36:44;41.20;;;7.27;;
4696;SDS011;2362;50.780;0.292;2024-01-25T05:39:09;40.70;;;6.33;;
4696;SDS011;2362;50.780;0.292;2024-01-25T05:41:35;24.70;;;5.40;;
4696;SDS011;2362;50.780;0.292;2024-01-25T05:44:00;35.63;;;6.03;;
4696;SDS011;2362;50.780;0.292;2024-01-25T05:46:26;49.60;;;7.13;;
4696;SDS011;2362;50.780;0.292;2024-01-25T05:48:52;44.80;;;5.73;;
4696;SDS011;2362;50.780;0.292;2024-01-25T05:51:17;35.23;;;5.30;;
4696;SDS011;2362;50.780;0.292;2024-01-25T05:53:43;42.57;;;5.97;;
4696;SDS011;2362;50.780;0.292;2024-01-25T05:56:09;50.53;;;6.50;;
4696;SDS011;2362;50.780;0.292;2024-01-25T05:58:35;49.33;;;6.03;;
4696;SDS011;2362;50.780;0.292;2024-01-25T06:01:01;40.50;;;5.43;;
4696;SDS011;2362;50.780;0.292;2024-01-25T06:03:27;35.20;;;5.00;;
4696;SDS011;2362;50.780;0.292;2024-01-25T06:05:53;35.73;;;5.47;;
4696;SDS011;2362;50.780;0.292;2024-01-25T06:08:18;40.53;;;5.60;;
4696;SDS011;2362;50.780;0.292;2024-01-25T06:10:44;35.73;;;5.30;;
4696;SDS011;2362;50.780;0.292;2024-01-25T06:13:10;40.00;;;5.00;;
4696;SDS011;2362;50.780;0.292;2024-01-25T06:15:35;37.97;;;5.47;;
4696;SDS011;2362;50.780;0.292;2024-01-25T06:18:01;35.13;;;5.77;;
4696;SDS011;2362;50.780;0.292;2024-01-25T06:20:28;36.20;;;6.40;;
4696;SDS011;2362;50.780;0.292;2024-01-25T06:22:53;30.13;;;6.57;;
4696;SDS011;2362;50.780;0.292;2024-01-25T06:25:19;28.40;;;6.53;;
4696;SDS011;2362;50.780;0.292;2024-01-25T06:27:44;43.17;;;7.27;;
4696;SDS011;2362;50.780;0.292;2024-01-25T06:30:10;39.47;;;7.93;;
4696;SDS011;2362;50.780;0.292;2024-01-25T06:32:36;39.97;;;8.10;;
4696;SDS011;2362;50.780;0.292;2024-01-25T06:35:02;34.90;;;7.07;;
4696;SDS011;2362;50.780;0.292;2024-01-25T06:37:29;39.00;;;6.43;;
4696;SDS011;2362;50.780;0.292;2024-01-25T06:39:55;34.90;;;6.03;;
4696;SDS011;2362;50.780;0.292;2024-01-25T06:42:20;29.07;;;5.90;;
4696;SDS011;2362;50.780;0.292;2024-01-25T06:44:46;34.90;;;5.60;;
4696;SDS011;2362;50.780;0.292;2024-01-25T06:47:12;32.73;;;6.40;;
4696;SDS011;2362;50.780;0.292;2024-01-25T06:49:38;36.03;;;6.27;;
4696;SDS011;2362;50.780;0.292;2024-01-25T06:52:04;36.43;;;6.70;;
4696;SDS011;2362;50.780;0.292;2024-01-25T06:54:30;43.43;;;6.23;;
4696;SDS011;2362;50.780;0.292;2024-01-25T06:56:56;35.53;;;6.27;;
4696;SDS011;2362;50.780;0.292;2024-01-25T06:59:22;36.97;;;6.00;;
4696;SDS011;2362;50.780;0.292;2024-01-25T07:01:48;47.87;;;7.80;;
4696;SDS011;2362;50.780;0.292;2024-01-25T07:04:14;30.80;;;5.77;;
4696;SDS011;2362;50.780;0.292;2024-01-25T07:06:40;40.90;;;6.33;;
4696;SDS011;2362;50.780;0.292;2024-01-25T07:09:06;47.67;;;6.97;;
4696;SDS011;2362;50.780;0.292;2024-01-25T07:11:32;40.97;;;6.43;;
4696;SDS011;2362;50.780;0.292;2024-01-25T07:13:58;49.80;;;8.13;;
4696;SDS011;2362;50.780;0.292;2024-01-25T07:16:23;56.37;;;7.73;;
4696;SDS011;2362;50.780;0.292;2024-01-25T07:18:49;54.87;;;8.37;;
4696;SDS011;2362;50.780;0.292;2024-01-25T07:21:15;65.97;;;8.50;;
4696;SDS011;2362;50.780;0.292;2024-01-25T07:23:40;53.80;;;9.70;;
4696;SDS011;2362;50.780;0.292;2024-01-25T07:26:06;47.50;;;7.47;;
4696;SDS011;2362;50.780;0.292;2024-01-25T07:28:32;49.77;;;7.33;;
4696;SDS011;2362;50.780;0.292;2024-01-25T07:30:57;56.17;;;8.47;;
4696;SDS011;2362;50.780;0.292;2024-01-25T07:33:23;49.80;;;7.07;;
4696;SDS011;2362;50.780;0.292;2024-01-25T07:35:49;51.50;;;7.93;;
4696;SDS011;2362;50.780;0.292;2024-01-25T07:38:14;48.20;;;8.27;;
4696;SDS011;2362;50.780;0.292;2024-01-25T07:40:40;50.50;;;9.37;;
4696;SDS011;2362;50.780;0.292;2024-01-25T07:43:06;56.83;;;9.70;;
4696;SDS011;2362;50.780;0.292;2024-01-25T07:45:32;46.70;;;10.70;;
4696;SDS011;2362;50.780;0.292;2024-01-25T07:47:58;48.00;;;10.40;;
4696;SDS011;2362;50.780;0.292;2024-01-25T07:50:24;48.27;;;11.50;;
4696;SDS011;2362;50.780;0.292;2024-01-25T07:52:50;47.17;;;11.07;;
4696;SDS011;2362;50.780;0.292;2024-01-25T07:55:16;50.30;;;11.43;;
4696;SDS011;2362;50.780;0.292;2024-01-25T07:57:41;50.43;;;12.40;;
4696;SDS011;2362;50.780;0.292;2024-01-25T08:00:07;49.40;;;12.13;;
4696;SDS011;2362;50.780;0.292;2024-01-25T08:02:34;49.73;;;12.00;;
4696;SDS011;2362;50.780;0.292;2024-01-25T08:05:00;45.33;;;12.90;;
4696;SDS011;2362;50.780;0.292;2024-01-25T08:07:27;35.53;;;12.70;;
4696;SDS011;2362;50.780;0.292;2024-01-25T08:09:53;50.77;;;14.23;;
4696;SDS011;2362;50.780;0.292;2024-01-25T08:12:23;48.57;;;13.60;;
4696;SDS011;2362;50.780;0.292;2024-01-25T08:14:51;57.30;;;14.17;;
4696;SDS011;2362;50.780;0.292;2024-01-25T08:17:17;58.00;;;15.57;;
4696;SDS011;2362;50.780;0.292;2024-01-25T08:19:44;53.67;;;15.93;;
4696;SDS011;2362;50.780;0.292;2024-01-25T08:22:11;55.63;;;16.17;;
4696;SDS011;2362;50.780;0.292;2024-01-25T08:24:38;61.93;;;17.20;;
4696;SDS011;2362;50.780;0.292;2024-01-25T08:27:04;52.80;;;15.43;;
4696;SDS011;2362;50.780;0.292;2024-01-25T08:29:30;64.47;;;17.20;;
4696;SDS011;2362;50.780;0.292;2024-01-25T08:31:55;51.07;;;14.93;;
4696;SDS011;2362;50.780;0.292;2024-01-25T08:34:21;62.17;;;14.90;;
4696;SDS011;2362;50.780;0.292;2024-01-25T08:36:46;36.73;;;12.77;;
4696;SDS011;2362;50.780;0.292;2024-01-25T08:39:12;43.70;;;12.37;;
4696;SDS011;2362;50.780;0.292;2024-01-25T08:41:39;36.70;;;11.60;;
4696;SDS011;2362;50.780;0.292;2024-01-25T08:44:04;37.73;;;11.10;;
4696;SDS011;2362;50.780;0.292;2024-01-25T08:46:30;42.27;;;12.13;;
4696;SDS011;2362;50.780;0.292;2024-01-25T08:48:55;58.53;;;13.47;;
4696;SDS011;2362;50.780;0.292;2024-01-25T08:51:21;47.87;;;13.47;;
4696;SDS011;2362;50.780;0.292;2024-01-25T08:53:47;53.40;;;15.70;;
4696;SDS011;2362;50.780;0.292;2024-01-25T08:56:15;63.47;;;14.40;;
4696;SDS011;2362;50.780;0.292;2024-01-25T08:58:41;48.37;;;13.33;;
4696;SDS011;2362;50.780;0.292;2024-01-25T09:01:07;52.03;;;12.93;;
4696;SDS011;2362;50.780;0.292;2024-01-25T09:03:32;38.70;;;11.93;;
4696;SDS011;2362;50.780;0.292;2024-01-25T09:05:58;67.17;;;12.90;;
4696;SDS011;2362;50.780;0.292;2024-01-25T09:08:30;68.47;;;11.87;;
4696;SDS011;2362;50.780;0.292;2024-01-25T09:10:56;45.30;;;11.60;;
4696;SDS011;2362;50.780;0.292;2024-01-25T09:13:21;68.13;;;12.13;;
4696;SDS011;2362;50.780;0.292;2024-01-25T09:15:47;39.37;;;10.60;;
4696;SDS011;2362;50.780;0.292;2024-01-25T09:18:12;42.70;;;11.03;;
4696;SDS011;2362;50.780;0.292;2024-01-25T09:20:38;48.33;;;9.77;;
4696;SDS011;2362;50.780;0.292;2024-01-25T09:23:05;42.47;;;10.27;;
4696;SDS011;2362;50.780;0.292;2024-01-25T09:25:31;35.20;;;10.23;;
4696;SDS011;2362;50.780;0.292;2024-01-25T09:27:57;37.80;;;9.80;;
4696;SDS011;2362;50.780;0.292;2024-01-25T09:30:23;33.67;;;9.93;;
4696;SDS011;2362;50.780;0.292;2024-01-25T09:32:48;41.93;;;9.50;;
4696;SDS011;2362;50.780;0.292;2024-01-25T09:35:14;34.23;;;8.70;;
4696;SDS011;2362;50.780;0.292;2024-01-25T09:37:40;37.40;;;9.43;;
4696;SDS011;2362;50.780;0.292;2024-01-25T09:40:05;46.30;;;9.80;;
4696;SDS011;2362;50.780;0.292;2024-01-25T09:42:31;28.97;;;8.60;;
4696;SDS011;2362;50.780;0.292;2024-01-25T09:44:57;29.50;;;8.43;;
4696;SDS011;2362;50.780;0.292;2024-01-25T09:47:23;35.83;;;9.40;;
4696;SDS011;2362;50.780;0.292;2024-01-25T09:49:49;36.70;;;9.07;;
4696;SDS011;2362;50.780;0.292;2024-01-25T09:52:14;32.43;;;8.73;;
4696;SDS011;2362;50.780;0.292;2024-01-25T09:54:42;41.43;;;10.17;;
4696;SDS011;2362;50.780;0.292;2024-01-25T09:57:12;46.30;;;9.30;;
4696;SDS011;2362;50.780;0.292;2024-01-25T09:59:42;40.03;;;9.63;;
4696;SDS011;2362;50.780;0.292;2024-01-25T10:02:09;35.67;;;9.20;;
4696;SDS011;2362;50.780;0.292;2024-01-25T10:04:35;36.10;;;8.70;;
4696;SDS011;2362;50.780;0.292;2024-01-25T10:07:01;30.53;;;7.90;;
4696;SDS011;2362;50.780;0.292;2024-01-25T10:09:26;25.97;;;7.07;;
4696;SDS011;2362;50.780;0.292;2024-01-25T10:11:52;32.73;;;7.83;;
4696;SDS011;2362;50.780;0.292;2024-01-25T10:14:17;32.33;;;6.80;;
4696;SDS011;2362;50.780;0.292;2024-01-25T10:16:44;30.80;;;7.27;;
4696;SDS011;2362;50.780;0.292;2024-01-25T10:19:10;42.40;;;7.27;;
4696;SDS011;2362;50.780;0.292;2024-01-25T10:21:37;30.50;;;7.30;;
4696;SDS011;2362;50.780;0.292;2024-01-25T10:24:04;30.07;;;6.93;;
4696;SDS011;2362;50.780;0.292;2024-01-25T10:26:31;26.03;;;7.20;;
4696;SDS011;2362;50.780;0.292;2024-01-25T10:28:56;33.43;;;7.00;;
4696;SDS011;2362;50.780;0.292;2024-01-25T10:31:23;27.87;;;6.97;;
4696;SDS011;2362;50.780;0.292;2024-01-25T10:33:51;31.00;;;7.13;;
4696;SDS011;2362;50.780;0.292;2024-01-25T10:36:19;26.30;;;6.73;;
4696;SDS011;2362;50.780;0.292;2024-01-25T10:38:47;29.20;;;7.10;;
4696;SDS011;2362;50.780;0.292;2024-01-25T10:41:14;30.30;;;6.70;;
4696;SDS011;2362;50.780;0.292;2024-01-25T10:43:40;27.00;;;7.23;;
4696;SDS011;2362;50.780;0.292;2024-01-25T10:46:06;28.80;;;6.87;;
4696;SDS011;2362;50.780;0.292;2024-01-25T10:48:33;38.37;;;9.37;;
4696;SDS011;2362;50.780;0.292;2024-01-25T10:51:00;36.47;;;7.30;;
4696;SDS011;2362;50.780;0.292;2024-01-25T10:53:31;35.80;;;7.83;;
4696;SDS011;2362;50.780;0.292;2024-01-25T10:55:58;35.87;;;9.00;;
4696;SDS011;2362;50.780;0.292;2024-01-25T10:58:24;35.00;;;7.43;;
4696;SDS011;2362;50.780;0.292;2024-01-25T11:01:00;36.67;;;8.33;;
4696;SDS011;2362;50.780;0.292;2024-01-25T11:03:27;37.53;;;8.07;;
4696;SDS011;2362;50.780;0.292;2024-01-25T11:05:54;30.33;;;8.13;;
4696;SDS011;2362;50.780;0.292;2024-01-25T11:08:30;24.73;;;6.70;;
4696;SDS011;2362;50.780;0.292;2024-01-25T11:10:55;27.13;;;6.73;;
4696;SDS011;2362;50.780;0.292;2024-01-25T11:13:26;28.10;;;6.60;;
4696;SDS011;2362;50.780;0.292;2024-01-25T11:15:52;19.47;;;5.53;;
4696;SDS011;2362;50.780;0.292;2024-01-25T11:18:18;26.17;;;5.30;;
4696;SDS011;2362;50.780;0.292;2024-01-25T11:20:46;21.23;;;4.93;;
4696;SDS011;2362;50.780;0.292;2024-01-25T11:23:14;28.30;;;5.13;;
4696;SDS011;2362;50.780;0.292;2024-01-25T11:25:43;27.23;;;5.70;;
4696;SDS011;2362;50.780;0.292;2024-01-25T11:28:13;23.33;;;5.60;;
4696;SDS011;2362;50.780;0.292;2024-01-25T11:30:42;28.93;;;6.07;;
4696;SDS011;2362;50.780;0.292;2024-01-25T11:33:08;28.10;;;5.17;;
4696;SDS011;2362;50.780;0.292;2024-01-25T11:35:35;28.17;;;5.40;;
4696;SDS011;2362;50.780;0.292;2024-01-25T11:38:01;27.50;;;5.93;;
4696;SDS011;2362;50.780;0.292;2024-01-25T11:40:27;32.50;;;7.83;;
4696;SDS011;2362;50.780;0.292;2024-01-25T11:42:56;22.87;;;6.10;;
4696;SDS011;2362;50.780;0.292;2024-01-25T11:45:22;24.43;;;5.27;;
4696;SDS011;2362;50.780;0.292;2024-01-25T11:47:48;33.27;;;6.17;;
4696;SDS011;2362;50.780;0.292;2024-01-25T11:50:15;31.77;;;6.10;;
4696;SDS011;2362;50.780;0.292;2024-01-25T11:52:41;32.00;;;6.63;;
4696;SDS011;2362;50.780;0.292;2024-01-25T11:55:07;32.93;;;5.30;;
4696;SDS011;2362;50.780;0.292;2024-01-25T12:00:01;27.87;;;5.23;;
4696;SDS011;2362;50.780;0.292;2024-01-25T12:02:29;26.03;;;5.80;;
4696;SDS011;2362;50.780;0.292;2024-01-25T12:04:56;26.90;;;5.10;;
4696;SDS011;2362;50.780;0.292;2024-01-25T12:07:22;29.00;;;5.73;;
4696;SDS011;2362;50.780;0.292;2024-01-25T12:09:58;22.03;;;5.40;;
4696;SDS011;2362;50.780;0.292;2024-01-25T12:12:32;22.47;;;6.07;;
4696;SDS011;2362;50.780;0.292;2024-01-25T12:14:58;31.73;;;5.50;;
4696;SDS011;2362;50.780;0.292;2024-01-25T12:17:25;28.73;;;5.37;;
4696;SDS011;2362;50.780;0.292;2024-01-25T12:19:54;17.97;;;4.50;;
4696;SDS011;2362;50.780;0.292;2024-01-25T12:22:29;34.73;;;6.23;;
4696;SDS011;2362;50.780;0.292;2024-01-25T12:24:58;14.80;;;4.53;;
4696;SDS011;2362;50.780;0.292;2024-01-25T12:27:24;21.60;;;5.07;;
4696;SDS011;2362;50.780;0.292;2024-01-25T12:29:51;23.63;;;4.43;;
4696;SDS011;2362;50.780;0.292;2024-01-25T12:32:20;20.87;;;4.30;;
4696;SDS011;2362;50.780;0.292;2024-01-25T12:34:53;22.80;;;4.47;;
4696;SDS011;2362;50.780;0.292;2024-01-25T12:37:19;22.93;;;4.23;;
4696;SDS011;2362;50.780;0.292;2024-01-25T12:39:45;20.13;;;4.00;;
4696;SDS011;2362;50.780;0.292;2024-01-25T12:42:11;19.97;;;3.87;;
4696;SDS011;2362;50.780;0.292;2024-01-25T12:44:38;21.10;;;3.53;;
4696;SDS011;2362;50.780;0.292;2024-01-25T12:47:04;17.13;;;3.50;;
4696;SDS011;2362;50.780;0.292;2024-01-25T12:49:31;21.17;;;3.80;;
4696;SDS011;2362;50.780;0.292;2024-01-25T12:51:57;14.97;;;3.10;;
4696;SDS011;2362;50.780;0.292;2024-01-25T12:54:23;13.80;;;3.70;;
4696;SDS011;2362;50.780;0.292;2024-01-25T12:56:49;13.93;;;3.53;;
4696;SDS011;2362;50.780;0.292;2024-01-25T12:59:14;10.00;;;2.77;;
4696;SDS011;2362;50.780;0.292;2024-01-25T13:01:40;18.00;;;3.60;;
4696;SDS011;2362;50.780;0.292;2024-01-25T13:04:06;14.60;;;3.10;;
4696;SDS011;2362;50.780;0.292;2024-01-25T13:06:31;14.53;;;3.23;;
4696;SDS011;2362;50.780;0.292;2024-01-25T13:08:57;11.27;;;2.87;;
4696;SDS011;2362;50.780;0.292;2024-01-25T13:11:22;11.33;;;2.33;;
4696;SDS011;2362;50.780;0.292;2024-01-25T13:13:48;14.57;;;2.77;;
4696;SDS011;2362;50.780;0.292;2024-01-25T13:16:16;21.27;;;3.47;;
4696;SDS011;2362;50.780;0.292;2024-01-25T13:18:42;13.07;;;2.63;;
4696;SDS011;2362;50.780;0.292;2024-01-25T13:21:07;12.57;;;2.73;;
4696;SDS011;2362;50.780;0.292;2024-01-25T13:23:33;17.77;;;2.90;;
4696;SDS011;2362;50.780;0.292;2024-01-25T13:25:58;9.27;;;2.30;;
4696;SDS011;2362;50.780;0.292;2024-01-25T13:28:24;9.53;;;2.07;;
4696;SDS011;2362;50.780;0.292;2024-01-25T13:30:50;9.87;;;2.30;;
4696;SDS011;2362;50.780;0.292;2024-01-25T13:33:17;8.83;;;2.83;;
4696;SDS011;2362;50.780;0.292;2024-01-25T13:35:43;10.83;;;2.53;;
4696;SDS011;2362;50.780;0.292;2024-01-25T13:38:08;12.57;;;1.90;;
4696;SDS011;2362;50.780;0.292;2024-01-25T13:40:39;5.63;;;2.00;;
4696;SDS011;2362;50.780;0.292;2024-01-25T13:43:05;9.73;;;1.90;;
4696;SDS011;2362;50.780;0.292;2024-01-25T13:45:31;10.70;;;2.03;;
4696;SDS011;2362;50.780;0.292;2024-01-25T13:47:56;12.17;;;2.23;;
4696;SDS011;2362;50.780;0.292;2024-01-25T13:50:22;9.40;;;2.03;;
4696;SDS011;2362;50.780;0.292;2024-01-25T13:52:47;4.07;;;1.50;;
4696;SDS011;2362;50.780;0.292;2024-01-25T13:55:13;4.90;;;1.50;;
4696;SDS011;2362;50.780;0.292;2024-01-25T13:57:40;9.83;;;1.37;;
4696;SDS011;2362;50.780;0.292;2024-01-25T14:00:05;7.63;;;1.60;;
4696;SDS011;2362;50.780;0.292;2024-01-25T14:02:33;5.20;;;1.60;;
4696;SDS011;2362;50.780;0.292;2024-01-25T14:04:59;7.13;;;1.90;;
4696;SDS011;2362;50.780;0.292;2024-01-25T14:07:25;7.07;;;1.80;;
4696;SDS011;2362;50.780;0.292;2024-01-25T14:09:51;6.57;;;2.20;;
4696;SDS011;2362;50.780;0.292;2024-01-25T14:12:19;4.60;;;1.73;;
4696;SDS011;2362;50.780;0.292;2024-01-25T14:14:45;5.20;;;1.87;;
4696;SDS011;2362;50.780;0.292;2024-01-25T14:17:11;6.37;;;1.70;;
4696;SDS011;2362;50.780;0.292;2024-01-25T14:19:36;5.37;;;1.80;;
4696;SDS011;2362;50.780;0.292;2024-01-25T14:22:02;10.23;;;2.03;;
4696;SDS011;2362;50.780;0.292;2024-01-25T14:24:28;6.57;;;1.43;;
4696;SDS011;2362;50.780;0.292;2024-01-25T14:26:53;4.17;;;1.40;;
4696;SDS011;2362;50.780;0.292;2024-01-25T14:29:19;6.40;;;1.50;;
4696;SDS011;2362;50.780;0.292;2024-01-25T14:31:44;6.40;;;2.53;;
4696;SDS011;2362;50.780;0.292;2024-01-25T14:34:10;6.77;;;2.13;;
4696;SDS011;2362;50.780;0.292;2024-01-25T14:36:36;7.87;;;1.60;;
4696;SDS011;2362;50.780;0.292;2024-01-25T14:39:02;3.37;;;1.40;;
4696;SDS011;2362;50.780;0.292;2024-01-25T14:41:28;5.27;;;1.90;;
4696;SDS011;2362;50.780;0.292;2024-01-25T14:43:55;6.27;;;1.90;;
4696;SDS011;2362;50.780;0.292;2024-01-25T14:46:20;6.53;;;1.50;;
4696;SDS011;2362;50.780;0.292;2024-01-25T14:48:46;7.53;;;1.80;;
4696;SDS011;2362;50.780;0.292;2024-01-25T14:51:12;3.70;;;1.50;;